sensor_id;sensor_type;location;lat;lon;timestamp;pressure;altitude;pressure_sealevel;temperature;humidity
13954;BME280;7049;49.444;8.522;2023-04-26T00:01:34;78458.44;;;-3.47;70.65
13954;BME280;7049;49.444;8.522;2023-04-26T00:06:37;78458.44;;;-3.47;70.80
13954;BME280;7049;49.444;8.522;2023-04-26T00:11:39;78464.72;;;-3.47;70.62
13954;BME280;7049;49.444;8.522;2023-04-26T00:16:41;78466.81;;;-3.47;71.05
13954;BME280;7049;49.444;8.522;2023-04-26T00:21:44;78477.25;;;-3.47;71.39
13954;BME280;7049;49.444;8.522;2023-04-26T00:26:45;78487.72;;;-3.47;71.33
13954;BME280;7049;49.444;8.522;2023-04-26T00:31:46;78487.72;;;-3.47;71.79
13954;BME280;7049;49.444;8.522;2023-04-26T00:36:49;78500.28;;;-3.47;71.49
13954;BME280;7049;49.444;8.522;2023-04-26T00:41:51;78500.28;;;-3.47;71.79
13954;BME280;7049;49.444;8.522;2023-04-26T00:46:52;78512.84;;;-3.47;71.78
13954;BME280;7049;49.444;8.522;2023-04-26T00:51:56;78514.94;;;-3.47;71.62
13954;BME280;7049;49.444;8.522;2023-04-26T00:56:58;78529.59;;;-3.47;72.04
13954;BME280;7049;49.444;8.522;2023-04-26T01:02:01;78540.06;;;-3.47;72.29
13954;BME280;7049;49.444;8.522;2023-04-26T01:07:04;78550.50;;;-3.47;72.18
13954;BME280;7049;49.444;8.522;2023-04-26T01:12:06;78560.97;;;-3.47;72.76
13954;BME280;7049;49.444;8.522;2023-04-26T01:17:08;78579.81;;;-3.47;73.28
13954;BME280;7049;49.444;8.522;2023-04-26T01:22:11;78588.19;;;-3.47;73.14
13954;BME280;7049;49.444;8.522;2023-04-26T01:27:13;78602.84;;;-3.47;73.52
13954;BME280;7049;49.444;8.522;2023-04-26T01:32:16;78609.13;;;-3.47;73.55
13954;BME280;7049;49.444;8.522;2023-04-26T01:37:22;78617.50;;;-3.47;74.07
13954;BME280;7049;49.444;8.522;2023-04-26T01:42:25;78625.84;;;-3.47;74.07
13954;BME280;7049;49.444;8.522;2023-04-26T01:47:27;78640.50;;;-3.47;74.28
13954;BME280;7049;49.444;8.522;2023-04-26T01:52:28;78648.88;;;-3.47;74.62
13954;BME280;7049;49.444;8.522;2023-04-26T01:57:31;78659.34;;;-3.47;75.00
13954;BME280;7049;49.444;8.522;2023-04-26T02:02:32;78659.34;;;-3.47;75.35
13954;BME280;7049;49.444;8.522;2023-04-26T02:07:34;78674.00;;;-3.47;75.77
13954;BME280;7049;49.444;8.522;2023-04-26T02:12:37;78684.47;;;-3.47;76.24
13954;BME280;7049;49.444;8.522;2023-04-26T02:17:38;78692.84;;;-3.47;76.53
13954;BME280;7049;49.444;8.522;2023-04-26T02:22:40;78699.13;;;-3.47;76.50
13954;BME280;7049;49.444;8.522;2023-04-26T02:27:42;78711.66;;;-3.47;76.75
13954;BME280;7049;49.444;8.522;2023-04-26T02:32:44;78715.84;;;-3.47;77.00
13954;BME280;7049;49.444;8.522;2023-04-26T02:37:45;78726.31;;;-3.47;77.11
13954;BME280;7049;49.444;8.522;2023-04-26T02:42:49;78738.88;;;-3.47;77.46
13954;BME280;7049;49.444;8.522;2023-04-26T02:47:51;78740.97;;;-3.47;77.97
13954;BME280;7049;49.444;8.522;2023-04-26T02:52:52;78751.44;;;-3.47;77.78
13954;BME280;7049;49.444;8.522;2023-04-26T02:57:55;78764.00;;;-3.47;77.93
13954;BME280;7049;49.444;8.522;2023-04-26T03:02:56;78774.47;;;-3.47;78.03
13954;BME280;7049;49.444;8.522;2023-04-26T03:08:01;78782.84;;;-3.47;78.65
13954;BME280;7049;49.444;8.522;2023-04-26T03:13:04;78793.31;;;-3.47;78.92
13954;BME280;7049;49.444;8.522;2023-04-26T03:18:06;78801.69;;;-3.47;79.22
13954;BME280;7049;49.444;8.522;2023-04-26T03:23:07;78805.84;;;-3.47;79.25
13954;BME280;7049;49.444;8.522;2023-04-26T03:28:10;78814.22;;;-3.47;79.17
13954;BME280;7049;49.444;8.522;2023-04-26T03:33:12;78820.50;;;-3.47;79.41
13954;BME280;7049;49.444;8.522;2023-04-26T03:38:13;78835.16;;;-3.47;79.74
13954;BME280;7049;49.444;8.522;2023-04-26T03:43:16;78843.53;;;-3.47;79.85
13954;BME280;7049;49.444;8.522;2023-04-26T03:48:17;78845.63;;;-3.47;80.00
13954;BME280;7049;49.444;8.522;2023-04-26T03:53:19;78851.91;;;-3.47;80.06
13954;BME280;7049;49.444;8.522;2023-04-26T03:58:21;78854.00;;;-3.47;80.45
13954;BME280;7049;49.444;8.522;2023-04-26T04:03:23;78858.19;;;-3.47;80.67
13954;BME280;7049;49.444;8.522;2023-04-26T04:08:24;78858.19;;;-3.47;80.95
13954;BME280;7049;49.444;8.522;2023-04-26T04:13:27;78866.56;;;-3.47;81.05
13954;BME280;7049;49.444;8.522;2023-04-26T04:18:29;78872.84;;;-3.47;81.19
13954;BME280;7049;49.444;8.522;2023-04-26T04:23:31;78877.03;;;-3.47;81.18
13954;BME280;7049;49.444;8.522;2023-04-26T04:28:34;78885.41;;;-3.47;80.75
13954;BME280;7049;49.444;8.522;2023-04-26T04:33:36;78889.59;;;-3.47;81.54
13954;BME280;7049;49.444;8.522;2023-04-26T04:38:37;78893.78;;;-3.47;81.58
13954;BME280;7049;49.444;8.522;2023-04-26T04:43:40;78897.97;;;-3.47;81.84
13954;BME280;7049;49.444;8.522;2023-04-26T04:48:42;78906.31;;;-3.47;81.72
13954;BME280;7049;49.444;8.522;2023-04-26T04:53:43;78908.41;;;-3.47;82.76
13954;BME280;7049;49.444;8.522;2023-04-26T04:58:46;78902.16;;;-3.47;82.98
13954;BME280;7049;49.444;8.522;2023-04-26T05:03:47;78912.59;;;-3.47;82.86
13954;BME280;7049;49.444;8.522;2023-04-26T05:08:49;78906.31;;;-3.47;83.19
13954;BME280;7049;49.444;8.522;2023-04-26T05:13:52;78904.22;;;-3.47;83.28
13954;BME280;7049;49.444;8.522;2023-04-26T05:18:53;78897.97;;;-3.47;83.50
13954;BME280;7049;49.444;8.522;2023-04-26T05:23:55;78897.97;;;-3.47;83.88
13954;BME280;7049;49.444;8.522;2023-04-26T05:29:04;78891.69;;;-3.47;83.97
13954;BME280;7049;49.444;8.522;2023-04-26T05:34:05;78885.41;;;-3.47;84.17
13954;BME280;7049;49.444;8.522;2023-04-26T05:39:06;78872.84;;;-3.47;84.24
13954;BME280;7049;49.444;8.522;2023-04-26T05:44:09;78874.94;;;-3.47;84.02
13954;BME280;7049;49.444;8.522;2023-04-26T05:49:11;78858.19;;;-3.47;83.83
13954;BME280;7049;49.444;8.522;2023-04-26T05:54:12;78835.16;;;-3.47;83.70
13954;BME280;7049;49.444;8.522;2023-04-26T05:59:15;78822.59;;;-3.47;83.35
13954;BME280;7049;49.444;8.522;2023-04-26T06:04:16;78814.22;;;-3.47;83.39
13954;BME280;7049;49.444;8.522;2023-04-26T06:09:18;78797.50;;;-3.47;83.06
13954;BME280;7049;49.444;8.522;2023-04-26T06:14:21;78789.13;;;-3.47;83.09
13954;BME280;7049;49.444;8.522;2023-04-26T06:19:22;78780.75;;;-3.47;82.85
13954;BME280;7049;49.444;8.522;2023-04-26T06:24:24;78751.44;;;-3.47;83.09
13954;BME280;7049;49.444;8.522;2023-04-26T06:29:31;78734.69;;;-3.47;82.09
13954;BME280;7049;49.444;8.522;2023-04-26T06:34:32;78692.84;;;-3.47;81.84
13954;BME280;7049;49.444;8.522;2023-04-26T06:39:34;78676.09;;;-3.47;81.28
13954;BME280;7049;49.444;8.522;2023-04-26T06:44:38;78657.25;;;-3.47;80.21
13954;BME280;7049;49.444;8.522;2023-04-26T06:49:40;78634.22;;;-3.47;79.95
13954;BME280;7049;49.444;8.522;2023-04-26T06:54:41;78613.31;;;-3.47;79.32
13954;BME280;7049;49.444;8.522;2023-04-26T06:59:44;78573.53;;;-3.47;79.50
13954;BME280;7049;49.444;8.522;2023-04-26T07:04:46;78529.59;;;-3.47;77.86
13954;BME280;7049;49.444;8.522;2023-04-26T07:09:47;78475.16;;;-3.47;76.28
13954;BME280;7049;49.444;8.522;2023-04-26T07:14:50;78427.03;;;-3.47;73.86
13954;BME280;7049;49.444;8.522;2023-04-26T07:20:19;78374.72;;;-3.47;70.51
13954;BME280;7049;49.444;8.522;2023-04-26T07:25:22;78330.75;;;-3.47;68.39
13954;BME280;7049;49.444;8.522;2023-04-26T07:30:25;78272.16;;;-3.47;67.45
13954;BME280;7049;49.444;8.522;2023-04-26T07:35:27;78230.31;;;-3.47;65.15
13954;BME280;7049;49.444;8.522;2023-04-26T07:40:28;78198.91;;;-3.47;62.34
13954;BME280;7049;49.444;8.522;2023-04-26T07:45:33;78161.25;;;-3.47;60.78
13954;BME280;7049;49.444;8.522;2023-04-26T07:50:37;78127.78;;;-3.47;58.30
13954;BME280;7049;49.444;8.522;2023-04-26T07:55:54;78102.66;;;-3.47;55.08
13954;BME280;7049;49.444;8.522;2023-04-26T08:01:01;78060.81;;;-3.47;56.18
13954;BME280;7049;49.444;8.522;2023-04-26T08:06:06;78033.59;;;-3.47;53.38
13954;BME280;7049;49.444;8.522;2023-04-26T08:11:13;78014.78;;;-3.47;50.50
13954;BME280;7049;49.444;8.522;2023-04-26T08:16:15;77962.47;;;-3.47;50.23
13954;BME280;7049;49.444;8.522;2023-04-26T08:21:17;77908.06;;;-3.47;45.54
13954;BME280;7049;49.444;8.522;2023-04-26T08:26:18;77872.47;;;-3.47;44.14
13954;BME280;7049;49.444;8.522;2023-04-26T08:31:24;77843.19;;;-3.47;42.75
13954;BME280;7049;49.444;8.522;2023-04-26T08:36:26;77813.88;;;-3.47;41.75
13954;BME280;7049;49.444;8.522;2023-04-26T08:41:28;77788.78;;;-3.47;39.39
13954;BME280;7049;49.444;8.522;2023-04-26T08:46:38;77759.47;;;-3.47;39.50
13954;BME280;7049;49.444;8.522;2023-04-26T08:51:45;77734.38;;;-3.47;38.49
13954;BME280;7049;49.444;8.522;2023-04-26T08:56:52;77705.09;;;-3.47;38.09
13954;BME280;7049;49.444;8.522;2023-04-26T09:02:05;77646.50;;;-3.47;39.32
13954;BME280;7049;49.444;8.522;2023-04-26T09:07:13;77590.00;;;-3.47;37.25
13954;BME280;7049;49.444;8.522;2023-04-26T09:12:17;77575.34;;;-3.47;35.75
13954;BME280;7049;49.444;8.522;2023-04-26T09:17:28;77539.78;;;-3.47;36.92
13954;BME280;7049;49.444;8.522;2023-04-26T09:22:32;77537.69;;;-3.47;37.04
13954;BME280;7049;49.444;8.522;2023-04-26T09:27:35;77552.34;;;-3.47;36.80
13954;BME280;7049;49.444;8.522;2023-04-26T09:32:52;77541.88;;;-3.47;36.66
13954;BME280;7049;49.444;8.522;2023-04-26T09:37:55;77539.78;;;-3.47;36.21
13954;BME280;7049;49.444;8.522;2023-04-26T09:42:59;77529.31;;;-3.47;36.08
13954;BME280;7049;49.444;8.522;2023-04-26T09:48:27;77543.97;;;-3.47;35.39
13954;BME280;7049;49.444;8.522;2023-04-26T09:53:41;77554.44;;;-3.47;34.83
13954;BME280;7049;49.444;8.522;2023-04-26T09:58:55;77562.81;;;-3.47;35.55
13954;BME280;7049;49.444;8.522;2023-04-26T10:04:03;77569.06;;;-3.47;34.85
13954;BME280;7049;49.444;8.522;2023-04-26T10:09:06;77566.97;;;-3.47;35.12
13954;BME280;7049;49.444;8.522;2023-04-26T10:14:08;77548.16;;;-3.47;35.36
13954;BME280;7049;49.444;8.522;2023-04-26T10:19:12;77531.41;;;-3.47;34.98
13954;BME280;7049;49.444;8.522;2023-04-26T10:24:14;77529.31;;;-3.47;33.63
13954;BME280;7049;49.444;8.522;2023-04-26T10:29:16;77520.94;;;-3.47;33.56
13954;BME280;7049;49.444;8.522;2023-04-26T10:34:20;77516.78;;;-3.47;33.86
13954;BME280;7049;49.444;8.522;2023-04-26T10:39:32;77525.13;;;-3.47;34.23
13954;BME280;7049;49.444;8.522;2023-04-26T10:51:10;77539.78;;;-3.47;34.09
13954;BME280;7049;49.444;8.522;2023-04-26T10:56:51;77558.63;;;-3.47;33.88
13954;BME280;7049;49.444;8.522;2023-04-26T11:01:54;77546.06;;;-3.47;34.04
13954;BME280;7049;49.444;8.522;2023-04-26T11:07:05;77520.94;;;-3.47;33.84
13954;BME280;7049;49.444;8.522;2023-04-26T11:12:14;77493.75;;;-3.47;33.73
13954;BME280;7049;49.444;8.522;2023-04-26T11:17:35;77474.94;;;-3.47;33.98
13954;BME280;7049;49.444;8.522;2023-04-26T11:22:46;77479.09;;;-3.47;33.17
13954;BME280;7049;49.444;8.522;2023-04-26T11:27:48;77443.53;;;-3.47;34.29
13954;BME280;7049;49.444;8.522;2023-04-26T11:32:49;77380.78;;;-3.47;34.61
13954;BME280;7049;49.444;8.522;2023-04-26T11:38:03;77336.84;;;-3.47;33.79
13954;BME280;7049;49.444;8.522;2023-04-26T11:43:06;77303.38;;;-3.47;31.54
13954;BME280;7049;49.444;8.522;2023-04-26T11:48:14;77301.28;;;-3.47;31.75
13954;BME280;7049;49.444;8.522;2023-04-26T11:53:17;77288.72;;;-3.47;32.72
13954;BME280;7049;49.444;8.522;2023-04-26T11:58:25;77290.81;;;-3.47;32.47
13954;BME280;7049;49.444;8.522;2023-04-26T12:03:29;77290.81;;;-3.47;31.85
13954;BME280;7049;49.444;8.522;2023-04-26T12:08:38;77299.19;;;-3.47;31.79
13954;BME280;7049;49.444;8.522;2023-04-26T12:13:46;77297.09;;;-3.47;31.60
13954;BME280;7049;49.444;8.522;2023-04-26T12:18:52;77295.00;;;-3.47;30.76
13954;BME280;7049;49.444;8.522;2023-04-26T12:23:57;77295.00;;;-3.47;30.62
13954;BME280;7049;49.444;8.522;2023-04-26T12:29:02;77288.72;;;-3.47;31.12
13954;BME280;7049;49.444;8.522;2023-04-26T12:34:04;77269.88;;;-3.47;31.88
13954;BME280;7049;49.444;8.522;2023-04-26T12:39:10;77225.94;;;-3.47;31.72
13954;BME280;7049;49.444;8.522;2023-04-26T12:44:12;77228.03;;;-3.47;30.75
13954;BME280;7049;49.444;8.522;2023-04-26T12:49:14;77219.69;;;-3.47;30.18
13954;BME280;7049;49.444;8.522;2023-04-26T12:54:17;77228.03;;;-3.47;30.42
13954;BME280;7049;49.444;8.522;2023-04-26T12:59:18;77219.69;;;-3.47;31.10
13954;BME280;7049;49.444;8.522;2023-04-26T13:04:20;77242.69;;;-3.47;29.78
13954;BME280;7049;49.444;8.522;2023-04-26T13:09:23;77236.41;;;-3.47;30.75
13954;BME280;7049;49.444;8.522;2023-04-26T13:14:24;77223.88;;;-3.47;30.60
13954;BME280;7049;49.444;8.522;2023-04-26T13:19:26;77211.31;;;-3.47;30.45
13954;BME280;7049;49.444;8.522;2023-04-26T13:24:28;77223.88;;;-3.47;28.26
13954;BME280;7049;49.444;8.522;2023-04-26T13:29:30;77238.50;;;-3.47;29.50
13954;BME280;7049;49.444;8.522;2023-04-26T13:34:31;77240.59;;;-3.47;29.61
13954;BME280;7049;49.444;8.522;2023-04-26T13:39:34;77257.34;;;-3.47;29.04
13954;BME280;7049;49.444;8.522;2023-04-26T13:56:34;77142.28;;;-3.47;28.57
13954;BME280;7049;49.444;8.522;2023-04-26T14:01:36;77146.44;;;-3.47;28.19
13954;BME280;7049;49.444;8.522;2023-04-26T14:06:38;77136.00;;;-3.47;27.74
13954;BME280;7049;49.444;8.522;2023-04-26T14:11:41;77142.28;;;-3.47;28.50
13954;BME280;7049;49.444;8.522;2023-04-26T14:16:42;77152.72;;;-3.47;27.70
13954;BME280;7049;49.444;8.522;2023-04-26T14:21:44;77112.97;;;-3.47;29.48
13954;BME280;7049;49.444;8.522;2023-04-26T14:26:47;77020.94;;;-3.47;30.05
13954;BME280;7049;49.444;8.522;2023-04-26T14:31:48;76939.34;;;-3.47;29.45
13954;BME280;7049;49.444;8.522;2023-04-26T14:36:50;76901.69;;;-3.47;28.55
13954;BME280;7049;49.444;8.522;2023-04-26T14:41:53;76905.88;;;-3.47;27.88
13954;BME280;7049;49.444;8.522;2023-04-26T14:46:55;76910.06;;;-3.47;28.59
13954;BME280;7049;49.444;8.522;2023-04-26T14:51:57;76939.34;;;-3.47;28.69
13954;BME280;7049;49.444;8.522;2023-04-26T14:57:00;76979.09;;;-3.47;29.06
13954;BME280;7049;49.444;8.522;2023-04-26T15:02:02;77031.41;;;-3.47;29.27
13954;BME280;7049;49.444;8.522;2023-04-26T15:07:04;77056.50;;;-3.47;29.33
13954;BME280;7049;49.444;8.522;2023-04-26T15:12:07;77069.06;;;-3.47;29.89
13954;BME280;7049;49.444;8.522;2023-04-26T15:17:15;77060.69;;;-3.47;30.12
13954;BME280;7049;49.444;8.522;2023-04-26T15:22:16;77043.94;;;-3.47;29.91
13954;BME280;7049;49.444;8.522;2023-04-26T15:27:19;77029.31;;;-3.47;29.57
13954;BME280;7049;49.444;8.522;2023-04-26T15:32:21;77014.66;;;-3.47;29.48
13954;BME280;7049;49.444;8.522;2023-04-26T15:37:23;77014.66;;;-3.47;29.61
13954;BME280;7049;49.444;8.522;2023-04-26T15:42:26;77014.66;;;-3.47;29.35
13954;BME280;7049;49.444;8.522;2023-04-26T15:47:27;77025.13;;;-3.47;29.66
13954;BME280;7049;49.444;8.522;2023-04-26T15:52:29;77006.28;;;-3.47;29.89
13954;BME280;7049;49.444;8.522;2023-04-26T15:57:34;76987.47;;;-3.47;29.55
13954;BME280;7049;49.444;8.522;2023-04-26T16:02:38;76956.09;;;-3.47;29.38
13954;BME280;7049;49.444;8.522;2023-04-26T16:07:41;76943.53;;;-3.47;29.48
13954;BME280;7049;49.444;8.522;2023-04-26T16:12:44;76922.63;;;-3.47;29.49
13954;BME280;7049;49.444;8.522;2023-04-26T16:17:46;76914.25;;;-3.47;29.50
13954;BME280;7049;49.444;8.522;2023-04-26T16:22:47;76916.34;;;-3.47;29.30
13954;BME280;7049;49.444;8.522;2023-04-26T16:27:50;76935.16;;;-3.47;29.27
13954;BME280;7049;49.444;8.522;2023-04-26T16:32:51;76956.09;;;-3.47;29.26
13954;BME280;7049;49.444;8.522;2023-04-26T16:37:53;77004.19;;;-3.47;29.48
13954;BME280;7049;49.444;8.522;2023-04-26T16:42:56;77035.56;;;-3.47;29.90
13954;BME280;7049;49.444;8.522;2023-04-26T16:47:57;77054.41;;;-3.47;30.16
13954;BME280;7049;49.444;8.522;2023-04-26T16:52:58;77071.13;;;-3.47;30.38
13954;BME280;7049;49.444;8.522;2023-04-26T16:58:01;77092.06;;;-3.47;30.60
13954;BME280;7049;49.444;8.522;2023-04-26T17:03:03;77112.97;;;-3.47;30.74
13954;BME280;7049;49.444;8.522;2023-04-26T17:08:11;77152.72;;;-3.47;31.18
13954;BME280;7049;49.444;8.522;2023-04-26T17:13:14;77182.03;;;-3.47;31.66
13954;BME280;7049;49.444;8.522;2023-04-26T17:18:16;77211.31;;;-3.47;31.83
13954;BME280;7049;49.444;8.522;2023-04-26T17:23:20;77238.50;;;-3.47;32.08
13954;BME280;7049;49.444;8.522;2023-04-26T17:28:25;77269.88;;;-3.47;32.72
13954;BME280;7049;49.444;8.522;2023-04-26T17:33:26;77295.00;;;-3.47;32.75
13954;BME280;7049;49.444;8.522;2023-04-26T17:38:28;77324.28;;;-3.47;32.88
13954;BME280;7049;49.444;8.522;2023-04-26T17:43:31;77351.47;;;-3.47;33.19
13954;BME280;7049;49.444;8.522;2023-04-26T17:48:32;77370.31;;;-3.47;33.33
13954;BME280;7049;49.444;8.522;2023-04-26T17:53:34;77382.88;;;-3.47;33.37
13954;BME280;7049;49.444;8.522;2023-04-26T17:58:37;77407.97;;;-3.47;33.99
13954;BME280;7049;49.444;8.522;2023-04-26T18:03:38;77433.06;;;-3.47;34.06
13954;BME280;7049;49.444;8.522;2023-04-26T18:08:40;77454.00;;;-3.47;34.59
13954;BME280;7049;49.444;8.522;2023-04-26T18:13:42;77474.94;;;-3.47;35.01
13954;BME280;7049;49.444;8.522;2023-04-26T18:18:44;77495.84;;;-3.47;35.44
13954;BME280;7049;49.444;8.522;2023-04-26T18:23:46;77516.78;;;-3.47;35.80
13954;BME280;7049;49.444;8.522;2023-04-26T18:28:49;77539.78;;;-3.47;36.05
13954;BME280;7049;49.444;8.522;2023-04-26T18:33:50;77556.53;;;-3.47;36.25
13954;BME280;7049;49.444;8.522;2023-04-26T18:38:51;77575.34;;;-3.47;36.65
13954;BME280;7049;49.444;8.522;2023-04-26T18:43:54;77585.81;;;-3.47;36.83
13954;BME280;7049;49.444;8.522;2023-04-26T18:48:56;77600.47;;;-3.47;37.15
13954;BME280;7049;49.444;8.522;2023-04-26T18:53:58;77623.47;;;-3.47;37.50
13954;BME280;7049;49.444;8.522;2023-04-26T18:59:01;77640.22;;;-3.47;37.68
13954;BME280;7049;49.444;8.522;2023-04-26T19:04:02;77659.03;;;-3.47;37.76
13954;BME280;7049;49.444;8.522;2023-04-26T19:09:04;77669.50;;;-3.47;38.07
13954;BME280;7049;49.444;8.522;2023-04-26T19:14:09;77694.63;;;-3.47;38.61
13954;BME280;7049;49.444;8.522;2023-04-26T19:19:10;77707.16;;;-3.47;39.04
13954;BME280;7049;49.444;8.522;2023-04-26T19:24:12;77717.63;;;-3.47;39.19
13954;BME280;7049;49.444;8.522;2023-04-26T19:29:15;77740.66;;;-3.47;39.30
13954;BME280;7049;49.444;8.522;2023-04-26T19:34:17;77763.66;;;-3.47;39.88
13954;BME280;7049;49.444;8.522;2023-04-26T19:39:18;77784.59;;;-3.47;40.00
13954;BME280;7049;49.444;8.522;2023-04-26T19:44:22;77801.34;;;-3.47;41.00
13954;BME280;7049;49.444;8.522;2023-04-26T19:49:23;77811.78;;;-3.47;41.85
13954;BME280;7049;49.444;8.522;2023-04-26T19:54:24;77830.63;;;-3.47;42.54
13954;BME280;7049;49.444;8.522;2023-04-26T19:59:27;77841.09;;;-3.47;44.15
13954;BME280;7049;49.444;8.522;2023-04-26T20:04:28;77859.91;;;-3.47;45.18
13954;BME280;7049;49.444;8.522;2023-04-26T20:09:30;77864.09;;;-3.47;45.85
13954;BME280;7049;49.444;8.522;2023-04-26T20:14:33;77895.50;;;-3.47;46.28
13954;BME280;7049;49.444;8.522;2023-04-26T20:19:35;77905.97;;;-3.47;46.90
13954;BME280;7049;49.444;8.522;2023-04-26T20:24:37;77920.59;;;-3.47;47.75
13954;BME280;7049;49.444;8.522;2023-04-26T20:29:39;77939.44;;;-3.47;48.65
13954;BME280;7049;49.444;8.522;2023-04-26T20:34:41;77958.28;;;-3.47;48.73
13954;BME280;7049;49.444;8.522;2023-04-26T20:39:42;77972.91;;;-3.47;50.03
13954;BME280;7049;49.444;8.522;2023-04-26T20:44:45;77981.28;;;-3.47;50.72
13954;BME280;7049;49.444;8.522;2023-04-26T20:49:46;77998.03;;;-3.47;51.50
13954;BME280;7049;49.444;8.522;2023-04-26T20:54:48;78010.59;;;-3.47;52.27
13954;BME280;7049;49.444;8.522;2023-04-26T20:59:50;78023.13;;;-3.47;53.05
13954;BME280;7049;49.444;8.522;2023-04-26T21:04:52;78029.41;;;-3.47;53.70
13954;BME280;7049;49.444;8.522;2023-04-26T21:09:53;78048.25;;;-3.47;54.21
13954;BME280;7049;49.444;8.522;2023-04-26T21:14:57;78069.19;;;-3.47;54.21
13954;BME280;7049;49.444;8.522;2023-04-26T21:19:58;78088.00;;;-3.47;54.17
13954;BME280;7049;49.444;8.522;2023-04-26T21:25:00;78102.66;;;-3.47;54.62
13954;BME280;7049;49.444;8.522;2023-04-26T21:30:03;78115.22;;;-3.47;55.33
13954;BME280;7049;49.444;8.522;2023-04-26T21:35:06;78140.31;;;-3.47;56.33
13954;BME280;7049;49.444;8.522;2023-04-26T21:40:08;78150.78;;;-3.47;57.50
13954;BME280;7049;49.444;8.522;2023-04-26T21:45:11;78171.72;;;-3.47;58.22
13954;BME280;7049;49.444;8.522;2023-04-26T21:50:13;78182.19;;;-3.47;58.70
13954;BME280;7049;49.444;8.522;2023-04-26T21:55:14;78194.75;;;-3.47;59.70
13954;BME280;7049;49.444;8.522;2023-04-26T22:00:17;78209.38;;;-3.47;60.05
13954;BME280;7049;49.444;8.522;2023-04-26T22:05:19;78226.13;;;-3.47;60.48
13954;BME280;7049;49.444;8.522;2023-04-26T22:10:21;78238.69;;;-3.47;60.92
13954;BME280;7049;49.444;8.522;2023-04-26T22:15:24;78255.44;;;-3.47;61.25
13954;BME280;7049;49.444;8.522;2023-04-26T22:20:25;78278.44;;;-3.47;62.13
13954;BME280;7049;49.444;8.522;2023-04-26T22:25:29;78288.91;;;-3.47;62.62
13954;BME280;7049;49.444;8.522;2023-04-26T22:30:32;78297.28;;;-3.47;63.21
13954;BME280;7049;49.444;8.522;2023-04-26T22:35:33;78320.31;;;-3.47;63.39
13954;BME280;7049;49.444;8.522;2023-04-26T22:40:35;78324.47;;;-3.47;63.71
13954;BME280;7049;49.444;8.522;2023-04-26T22:45:38;78341.22;;;-3.47;63.84
13954;BME280;7049;49.444;8.522;2023-04-26T22:50:39;78357.97;;;-3.47;64.87
13954;BME280;7049;49.444;8.522;2023-04-26T22:55:41;78366.34;;;-3.47;64.83
13954;BME280;7049;49.444;8.522;2023-04-26T23:00:44;78381.00;;;-3.47;65.37
13954;BME280;7049;49.444;8.522;2023-04-26T23:05:46;78387.28;;;-3.47;65.81
13954;BME280;7049;49.444;8.522;2023-04-26T23:10:47;78401.91;;;-3.47;66.28
13954;BME280;7049;49.444;8.522;2023-04-26T23:15:50;78410.28;;;-3.47;66.79
13954;BME280;7049;49.444;8.522;2023-04-26T23:20:51;78424.94;;;-3.47;67.29
13954;BME280;7049;49.444;8.522;2023-04-26T23:25:52;78429.13;;;-3.47;67.41
13954;BME280;7049;49.444;8.522;2023-04-26T23:30:55;78441.69;;;-3.47;68.25
13954;BME280;7049;49.444;8.522;2023-04-26T23:35:57;78458.44;;;-3.47;68.84
13954;BME280;7049;49.444;8.522;2023-04-26T23:40:58;78468.91;;;-3.47;69.76
13954;BME280;7049;49.444;8.522;2023-04-26T23:46:01;78479.34;;;-3.47;69.89
13954;BME280;7049;49.444;8.522;2023-04-26T23:51:03;78487.72;;;-3.47;69.65
13954;BME280;7049;49.444;8.522;2023-04-26T23:56:05;78496.09;;;-3.47;69.75
